createdAt,value
2018-05-21T00:00:57.961Z,15.80
2018-05-21T00:06:00.521Z,15.70
2018-05-21T00:11:03.110Z,15.60
2018-05-21T00:16:05.639Z,15.50
2018-05-21T00:21:08.186Z,15.50
2018-05-21T00:26:10.745Z,15.40
2018-05-21T00:31:13.293Z,15.40
2018-05-21T00:36:15.836Z,15.30
2018-05-21T00:41:18.403Z,15.20
2018-05-21T00:46:21.722Z,15.10
2018-05-21T00:51:25.016Z,15.00
2018-05-21T00:56:27.560Z,15.00
2018-05-21T01:01:30.087Z,14.90
2018-05-21T01:06:32.625Z,14.90
2018-05-21T01:11:35.187Z,14.80
2018-05-21T01:16:38.093Z,14.70
2018-05-21T01:21:40.657Z,14.70
2018-05-21T01:26:43.243Z,14.60
2018-05-21T01:31:46.533Z,14.50
2018-05-21T01:36:49.065Z,14.50
2018-05-21T01:41:51.612Z,14.40
2018-05-21T01:46:54.413Z,14.40
2018-05-21T01:51:56.956Z,14.40
2018-05-21T01:56:59.508Z,14.30
2018-05-21T02:02:02.042Z,14.20
2018-05-21T02:07:04.572Z,14.20
2018-05-21T02:12:07.090Z,14.10
2018-05-21T02:17:09.627Z,14.10
2018-05-21T02:22:12.166Z,14.00
2018-05-21T02:27:14.793Z,13.90
2018-05-21T02:32:17.423Z,13.90
2018-05-21T02:37:19.946Z,13.80
2018-05-21T02:42:22.489Z,13.80
2018-05-21T02:47:25.137Z,13.70
2018-05-21T02:52:27.696Z,13.60
2018-05-21T02:57:30.245Z,13.60
2018-05-21T03:02:32.805Z,13.50
2018-05-21T03:07:35.326Z,13.50
2018-05-21T03:12:37.862Z,13.40
2018-05-21T03:17:40.465Z,13.40
2018-05-21T03:22:42.985Z,13.30
2018-05-21T03:27:45.536Z,13.30
2018-05-21T03:32:48.061Z,13.20
2018-05-21T03:37:50.585Z,13.20
2018-05-21T03:42:53.158Z,13.10
2018-05-21T03:47:55.742Z,13.10
2018-05-21T03:52:59.070Z,13.00
2018-05-21T03:58:01.613Z,13.00
2018-05-21T04:03:27.702Z,13.00
2018-05-21T04:08:30.237Z,13.00
2018-05-21T04:13:33.596Z,12.90
2018-05-21T04:18:36.145Z,12.90
2018-05-21T04:23:38.768Z,13.00
2018-05-21T04:28:41.306Z,12.90
2018-05-21T04:33:43.839Z,13.00
2018-05-21T04:38:46.407Z,13.00
2018-05-21T04:43:49.236Z,13.00
2018-05-21T04:48:55.375Z,13.10
2018-05-21T04:53:59.044Z,13.20
2018-05-21T04:59:05.781Z,13.30
2018-05-21T05:04:16.005Z,13.40
2018-05-21T05:09:18.633Z,13.50
2018-05-21T05:14:21.275Z,13.60
2018-05-21T05:19:23.827Z,13.80
2018-05-21T05:24:26.359Z,13.90
2018-05-21T05:29:28.910Z,14.10
2018-05-21T05:34:33.373Z,14.40
2018-05-21T05:39:36.164Z,14.80
2018-05-21T05:44:39.401Z,15.10
2018-05-21T05:49:41.999Z,15.50
2018-05-21T05:54:44.559Z,15.90
2018-05-21T05:59:47.146Z,16.20
2018-05-21T06:04:49.700Z,16.60
2018-05-21T06:09:52.259Z,17.00
2018-05-21T06:14:54.858Z,17.30
2018-05-21T06:19:57.403Z,17.70
2018-05-21T06:25:00.847Z,18.10
2018-05-21T06:30:03.451Z,18.40
2018-05-21T06:35:07.587Z,18.70
2018-05-21T06:40:10.601Z,19.10
2018-05-21T06:45:13.411Z,19.40
2018-05-21T06:50:16.095Z,19.80
2018-05-21T06:55:20.203Z,20.10
2018-05-21T07:52:11.110Z,22.60
2018-05-21T07:57:15.649Z,23.10
2018-05-21T08:02:19.359Z,23.00
2018-05-21T08:07:23.046Z,23.30
2018-05-21T08:12:25.792Z,23.50
2018-05-21T08:17:30.752Z,23.60
2018-05-21T08:22:33.763Z,23.80
2018-05-21T08:27:36.908Z,24.00
2018-05-21T08:32:41.176Z,24.20
2018-05-21T08:37:43.857Z,24.40
2018-05-21T08:42:48.552Z,24.60
2018-05-21T08:47:51.567Z,24.80
2018-05-21T08:52:54.353Z,25.00
2018-05-21T09:03:07.137Z,25.40
2018-05-21T09:08:09.865Z,25.50
2018-05-21T09:13:12.727Z,25.70
2018-05-21T09:18:16.163Z,26.00
2018-05-21T09:23:19.142Z,26.00
2018-05-21T09:28:22.003Z,26.20
2018-05-21T09:33:25.785Z,26.30
2018-05-21T09:38:28.909Z,26.40
2018-05-21T09:43:31.740Z,26.60
2018-05-21T09:48:34.417Z,26.70
2018-05-21T09:53:37.165Z,26.80
2018-05-21T09:58:40.118Z,27.10
2018-05-21T10:03:43.204Z,27.20
2018-05-21T10:08:46.061Z,27.30
2018-05-21T10:13:49.269Z,27.50
2018-05-21T10:18:52.052Z,27.60
2018-05-21T10:23:55.087Z,27.80
2018-05-21T10:28:57.982Z,27.90
2018-05-21T10:34:00.603Z,27.90
2018-05-21T10:39:03.526Z,28.10
2018-05-21T10:44:06.158Z,28.10
2018-05-21T10:49:08.741Z,28.30
2018-05-21T10:54:12.012Z,28.40
2018-05-21T10:59:14.668Z,28.40
2018-05-21T11:04:17.272Z,28.50
2018-05-21T11:09:19.821Z,28.70
2018-05-21T11:14:23.225Z,28.80
2018-05-21T11:19:26.086Z,28.70
2018-05-21T11:24:28.694Z,28.80
2018-05-21T11:29:31.307Z,28.90
2018-05-21T11:34:33.838Z,29.00
2018-05-21T11:39:36.413Z,29.20
2018-05-21T11:44:39.347Z,29.20
2018-05-21T11:49:41.993Z,29.20
2018-05-21T11:54:45.223Z,29.30
2018-05-21T11:59:48.011Z,29.30
2018-05-21T12:04:50.829Z,29.30
2018-05-21T12:09:53.723Z,29.40
2018-05-21T12:14:57.633Z,29.40
2018-05-21T12:20:00.635Z,29.40
2018-05-21T12:25:03.593Z,29.60
2018-05-21T12:30:07.264Z,29.70
2018-05-21T12:35:10.161Z,29.70
2018-05-21T12:40:12.918Z,29.80
2018-05-21T12:45:16.022Z,29.80
2018-05-21T12:50:19.305Z,29.80
2018-05-21T12:55:22.142Z,29.80
2018-05-21T13:00:24.809Z,29.80
2018-05-21T13:05:28.009Z,29.90
2018-05-21T13:10:31.476Z,29.80
2018-05-21T13:15:34.914Z,29.80
2018-05-21T13:20:38.216Z,29.80
2018-05-21T13:25:41.002Z,29.90
2018-05-21T13:30:44.294Z,29.90
2018-05-21T13:35:47.921Z,29.90
2018-05-21T13:40:52.054Z,29.90
2018-05-21T13:45:55.989Z,29.90
2018-05-21T13:50:58.887Z,29.90
2018-05-21T13:56:01.615Z,29.80
2018-05-21T14:01:04.676Z,29.90
2018-05-21T14:06:07.300Z,29.80
2018-05-21T14:11:10.028Z,29.70
2018-05-21T14:16:12.683Z,29.70
2018-05-21T14:21:15.488Z,29.60
2018-05-21T14:26:18.307Z,29.70
2018-05-21T14:31:20.905Z,29.50
2018-05-21T14:36:23.608Z,29.20
2018-05-21T14:41:26.352Z,29.10
2018-05-21T14:46:29.097Z,28.90
2018-05-21T14:51:32.413Z,28.80
2018-05-21T14:56:35.035Z,28.70
2018-05-21T15:01:38.779Z,28.60
2018-05-21T15:06:42.137Z,28.50
2018-05-21T15:11:45.573Z,28.40
2018-05-21T15:16:48.176Z,28.30
2018-05-21T15:21:51.036Z,28.30
2018-05-21T15:26:54.131Z,28.20
2018-05-21T15:31:57.222Z,28.00
2018-05-21T15:36:59.841Z,27.90
2018-05-21T15:42:02.850Z,27.80
2018-05-21T15:47:07.073Z,27.70
2018-05-21T15:52:09.967Z,27.60
2018-05-21T15:57:12.565Z,27.50
2018-05-21T16:02:15.148Z,27.40
2018-05-21T16:07:18.542Z,26.50
2018-05-21T16:12:21.438Z,26.50
2018-05-21T16:17:24.956Z,26.30
2018-05-21T16:22:27.535Z,26.40
2018-05-21T16:27:34.301Z,26.40
2018-05-21T16:32:43.370Z,26.40
2018-05-21T16:37:50.346Z,26.40
2018-05-21T16:42:56.251Z,26.30
2018-05-21T16:48:00.652Z,26.20
2018-05-21T16:53:08.758Z,26.10
2018-05-21T16:58:17.765Z,26.10
2018-05-21T17:03:23.313Z,25.90
2018-05-21T17:08:35.621Z,25.80
2018-05-21T17:18:58.650Z,25.60
2018-05-21T17:24:03.747Z,25.50
2018-05-21T17:45:03.824Z,25.00
2018-05-21T17:55:49.352Z,24.70
2018-05-21T18:17:56.243Z,24.00
2018-05-21T18:23:03.730Z,23.90
2018-05-21T18:33:24.565Z,23.60
2018-05-21T18:43:43.865Z,23.30
2018-05-21T18:48:57.515Z,23.20
2018-05-21T18:59:12.556Z,22.90
2018-05-21T19:09:32.953Z,22.70
2018-05-21T19:14:40.512Z,22.50
2018-05-21T19:19:48.650Z,22.40
2018-05-21T19:24:51.338Z,22.30
2018-05-21T19:29:54.151Z,22.10
2018-05-21T19:34:56.802Z,22.00
2018-05-21T19:40:01.353Z,21.80
2018-05-21T19:45:04.145Z,21.80
2018-05-21T19:50:06.883Z,21.60
2018-05-21T19:55:10.088Z,21.50
2018-05-21T20:00:12.674Z,21.40
2018-05-21T20:05:21.581Z,21.30
2018-05-21T20:10:24.322Z,21.20
2018-05-21T20:15:28.077Z,20.90
2018-05-21T20:20:41.592Z,20.90
2018-05-21T20:25:45.188Z,20.80
2018-05-21T20:30:48.784Z,20.70
2018-05-21T20:35:51.951Z,20.60
2018-05-21T20:40:54.874Z,20.50
2018-05-21T20:45:57.703Z,20.40
2018-05-21T20:51:00.698Z,20.30
2018-05-21T20:56:03.654Z,20.20
2018-05-21T21:01:06.494Z,20.10
2018-05-21T21:06:09.583Z,19.90
2018-05-21T21:11:12.585Z,19.90
2018-05-21T21:16:16.405Z,19.60
2018-05-21T21:21:19.131Z,19.60
2018-05-21T21:26:22.469Z,19.50
2018-05-21T21:31:25.398Z,19.40
2018-05-21T21:36:29.734Z,19.30
2018-05-21T21:41:33.027Z,19.20
2018-05-21T21:46:35.933Z,19.10
2018-05-21T21:51:39.716Z,19.00
2018-05-21T21:56:42.465Z,18.90
2018-05-21T22:01:46.131Z,18.70
2018-05-21T22:06:49.693Z,18.60
2018-05-21T22:11:52.698Z,18.50
2018-05-21T22:16:55.459Z,18.50
2018-05-21T22:21:58.408Z,18.40
2018-05-21T22:27:01.203Z,18.30
2018-05-21T22:32:04.205Z,18.20
2018-05-21T22:37:07.116Z,18.10
2018-05-21T22:42:10.037Z,18.00
2018-05-21T22:47:13.444Z,17.90
2018-05-21T22:52:17.027Z,17.80
2018-05-21T22:57:21.309Z,17.70
2018-05-21T23:02:25.048Z,17.50
2018-05-21T23:07:28.439Z,17.50
2018-05-21T23:12:32.340Z,17.40
2018-05-21T23:17:35.127Z,17.30
2018-05-21T23:22:45.147Z,17.30
2018-05-21T23:27:47.954Z,17.20
2018-05-21T23:32:50.893Z,17.10
2018-05-21T23:37:53.869Z,17.10
2018-05-21T23:42:56.658Z,17.00
2018-05-21T23:47:59.408Z,16.90
2018-05-21T23:53:02.370Z,16.90
2018-05-21T23:58:05.246Z,16.80
